sensor_id;sensor_type;location;lat;lon;timestamp;P1;durP1;ratioP1;P2;durP2;ratioP2
14849;SDS011;7517;48.400;11.770;2022-12-13T00:01:19;13.97;;;10.03;;
14849;SDS011;7517;48.400;11.770;2022-12-13T00:03:48;12.90;;;9.90;;
14849;SDS011;7517;48.400;11.770;2022-12-13T00:06:17;13.33;;;10.40;;
14849;SDS011;7517;48.400;11.770;2022-12-13T00:08:45;12.03;;;9.13;;
14849;SDS011;7517;48.400;11.770;2022-12-13T00:11:12;11.47;;;9.73;;
14849;SDS011;7517;48.400;11.770;2022-12-13T00:13:42;14.17;;;10.97;;
14849;SDS011;7517;48.400;11.770;2022-12-13T00:16:11;13.03;;;10.73;;
14849;SDS011;7517;48.400;11.770;2022-12-13T00:18:41;12.83;;;10.70;;
14849;SDS011;7517;48.400;11.770;2022-12-13T00:21:11;13.47;;;9.73;;
14849;SDS011;7517;48.400;11.770;2022-12-13T00:23:40;11.63;;;9.70;;
14849;SDS011;7517;48.400;11.770;2022-12-13T00:26:09;13.17;;;10.00;;
14849;SDS011;7517;48.400;11.770;2022-12-13T00:28:38;13.47;;;10.43;;
14849;SDS011;7517;48.400;11.770;2022-12-13T00:31:07;14.47;;;10.60;;
14849;SDS011;7517;48.400;11.770;2022-12-13T00:33:36;12.00;;;9.77;;
14849;SDS011;7517;48.400;11.770;2022-12-13T00:36:04;12.47;;;9.80;;
14849;SDS011;7517;48.400;11.770;2022-12-13T00:38:33;12.23;;;10.07;;
14849;SDS011;7517;48.400;11.770;2022-12-13T00:41:08;13.70;;;9.90;;
14849;SDS011;7517;48.400;11.770;2022-12-13T00:43:37;14.23;;;11.10;;
14849;SDS011;7517;48.400;11.770;2022-12-13T00:46:05;13.97;;;10.73;;
14849;SDS011;7517;48.400;11.770;2022-12-13T00:48:38;11.87;;;9.63;;
14849;SDS011;7517;48.400;11.770;2022-12-13T00:51:06;11.67;;;9.37;;
14849;SDS011;7517;48.400;11.770;2022-12-13T00:53:34;11.23;;;8.97;;
14849;SDS011;7517;48.400;11.770;2022-12-13T00:56:02;12.50;;;10.30;;
14849;SDS011;7517;48.400;11.770;2022-12-13T00:58:30;10.87;;;9.37;;
14849;SDS011;7517;48.400;11.770;2022-12-13T01:01:05;12.90;;;9.83;;
14849;SDS011;7517;48.400;11.770;2022-12-13T01:03:37;11.93;;;9.77;;
14849;SDS011;7517;48.400;11.770;2022-12-13T01:06:07;12.33;;;9.47;;
14849;SDS011;7517;48.400;11.770;2022-12-13T01:08:37;12.73;;;10.53;;
14849;SDS011;7517;48.400;11.770;2022-12-13T01:11:04;11.27;;;9.37;;
14849;SDS011;7517;48.400;11.770;2022-12-13T01:13:33;11.40;;;9.77;;
14849;SDS011;7517;48.400;11.770;2022-12-13T01:16:01;15.60;;;11.67;;
14849;SDS011;7517;48.400;11.770;2022-12-13T01:18:32;12.40;;;9.90;;
14849;SDS011;7517;48.400;11.770;2022-12-13T01:21:00;13.13;;;10.47;;
14849;SDS011;7517;48.400;11.770;2022-12-13T01:23:30;13.10;;;9.73;;
14849;SDS011;7517;48.400;11.770;2022-12-13T01:26:00;15.20;;;10.77;;
14849;SDS011;7517;48.400;11.770;2022-12-13T01:28:28;13.83;;;11.20;;
14849;SDS011;7517;48.400;11.770;2022-12-13T01:30:56;12.27;;;10.13;;
14849;SDS011;7517;48.400;11.770;2022-12-13T01:33:26;13.00;;;9.47;;
14849;SDS011;7517;48.400;11.770;2022-12-13T01:35:58;13.90;;;10.43;;
14849;SDS011;7517;48.400;11.770;2022-12-13T01:38:28;13.83;;;11.50;;
14849;SDS011;7517;48.400;11.770;2022-12-13T01:40:55;13.80;;;10.63;;
14849;SDS011;7517;48.400;11.770;2022-12-13T01:43:23;14.77;;;11.20;;
14849;SDS011;7517;48.400;11.770;2022-12-13T01:45:52;13.60;;;10.87;;
14849;SDS011;7517;48.400;11.770;2022-12-13T01:48:20;14.97;;;10.93;;
14849;SDS011;7517;48.400;11.770;2022-12-13T01:50:52;12.60;;;10.73;;
14849;SDS011;7517;48.400;11.770;2022-12-13T01:53:27;15.10;;;11.20;;
14849;SDS011;7517;48.400;11.770;2022-12-13T01:56:00;18.57;;;12.33;;
14849;SDS011;7517;48.400;11.770;2022-12-13T01:58:33;13.77;;;9.90;;
14849;SDS011;7517;48.400;11.770;2022-12-13T02:01:03;13.10;;;10.43;;
14849;SDS011;7517;48.400;11.770;2022-12-13T02:03:30;13.33;;;10.50;;
14849;SDS011;7517;48.400;11.770;2022-12-13T02:06:02;16.23;;;11.20;;
14849;SDS011;7517;48.400;11.770;2022-12-13T02:08:35;13.67;;;10.60;;
14849;SDS011;7517;48.400;11.770;2022-12-13T02:11:05;13.63;;;10.53;;
14849;SDS011;7517;48.400;11.770;2022-12-13T02:13:32;11.97;;;10.10;;
14849;SDS011;7517;48.400;11.770;2022-12-13T02:16:00;12.90;;;10.30;;
14849;SDS011;7517;48.400;11.770;2022-12-13T02:18:43;14.23;;;10.37;;
14849;SDS011;7517;48.400;11.770;2022-12-13T02:21:29;13.93;;;10.20;;
14849;SDS011;7517;48.400;11.770;2022-12-13T02:27:16;14.67;;;10.40;;
14849;SDS011;7517;48.400;11.770;2022-12-13T02:30:24;12.87;;;10.03;;
14849;SDS011;7517;48.400;11.770;2022-12-13T02:33:10;12.07;;;9.73;;
14849;SDS011;7517;48.400;11.770;2022-12-13T02:35:53;14.07;;;10.37;;
14849;SDS011;7517;48.400;11.770;2022-12-13T02:38:32;11.70;;;9.57;;
14849;SDS011;7517;48.400;11.770;2022-12-13T02:41:12;13.23;;;9.73;;
14849;SDS011;7517;48.400;11.770;2022-12-13T02:43:47;12.77;;;9.93;;
14849;SDS011;7517;48.400;11.770;2022-12-13T02:46:24;11.57;;;9.70;;
14849;SDS011;7517;48.400;11.770;2022-12-13T02:48:56;11.77;;;9.07;;
14849;SDS011;7517;48.400;11.770;2022-12-13T02:51:25;12.50;;;9.43;;
14849;SDS011;7517;48.400;11.770;2022-12-13T02:53:55;11.47;;;9.13;;
14849;SDS011;7517;48.400;11.770;2022-12-13T02:56:22;12.30;;;9.87;;
14849;SDS011;7517;48.400;11.770;2022-12-13T02:58:50;15.07;;;11.10;;
14849;SDS011;7517;48.400;11.770;2022-12-13T03:01:27;15.63;;;10.63;;
14849;SDS011;7517;48.400;11.770;2022-12-13T03:04:17;12.57;;;9.20;;
14849;SDS011;7517;48.400;11.770;2022-12-13T03:06:57;12.07;;;9.57;;
14849;SDS011;7517;48.400;11.770;2022-12-13T03:09:36;11.67;;;9.47;;
14849;SDS011;7517;48.400;11.770;2022-12-13T03:12:23;12.77;;;9.53;;
14849;SDS011;7517;48.400;11.770;2022-12-13T03:15:19;13.10;;;10.13;;
14849;SDS011;7517;48.400;11.770;2022-12-13T03:17:56;10.70;;;8.80;;
14849;SDS011;7517;48.400;11.770;2022-12-13T03:20:31;12.10;;;9.47;;
14849;SDS011;7517;48.400;11.770;2022-12-13T03:22:58;11.43;;;9.10;;
14849;SDS011;7517;48.400;11.770;2022-12-13T03:25:26;12.37;;;9.37;;
14849;SDS011;7517;48.400;11.770;2022-12-13T03:27:56;10.23;;;8.53;;
14849;SDS011;7517;48.400;11.770;2022-12-13T03:30:23;10.90;;;9.27;;
14849;SDS011;7517;48.400;11.770;2022-12-13T03:32:50;11.37;;;9.30;;
14849;SDS011;7517;48.400;11.770;2022-12-13T03:35:18;10.77;;;8.93;;
14849;SDS011;7517;48.400;11.770;2022-12-13T03:37:57;12.77;;;9.10;;
14849;SDS011;7517;48.400;11.770;2022-12-13T03:40:26;10.80;;;7.93;;
14849;SDS011;7517;48.400;11.770;2022-12-13T03:42:55;10.97;;;8.73;;
14849;SDS011;7517;48.400;11.770;2022-12-13T03:45:22;10.53;;;8.70;;
14849;SDS011;7517;48.400;11.770;2022-12-13T03:47:49;11.50;;;9.07;;
14849;SDS011;7517;48.400;11.770;2022-12-13T03:50:16;12.40;;;8.83;;
14849;SDS011;7517;48.400;11.770;2022-12-13T03:52:45;10.63;;;8.70;;
14849;SDS011;7517;48.400;11.770;2022-12-13T03:55:16;13.07;;;9.30;;
14849;SDS011;7517;48.400;11.770;2022-12-13T03:57:44;12.90;;;9.47;;
14849;SDS011;7517;48.400;11.770;2022-12-13T04:00:11;12.13;;;8.30;;
14849;SDS011;7517;48.400;11.770;2022-12-13T04:02:39;10.93;;;8.90;;
14849;SDS011;7517;48.400;11.770;2022-12-13T04:05:07;12.27;;;9.23;;
14849;SDS011;7517;48.400;11.770;2022-12-13T04:07:36;10.63;;;8.90;;
14849;SDS011;7517;48.400;11.770;2022-12-13T04:10:03;13.37;;;9.37;;
14849;SDS011;7517;48.400;11.770;2022-12-13T04:12:31;11.93;;;9.27;;
14849;SDS011;7517;48.400;11.770;2022-12-13T04:15:16;10.77;;;8.80;;
14849;SDS011;7517;48.400;11.770;2022-12-13T04:17:43;11.30;;;9.30;;
14849;SDS011;7517;48.400;11.770;2022-12-13T04:20:10;12.20;;;9.50;;
14849;SDS011;7517;48.400;11.770;2022-12-13T04:22:39;13.73;;;9.37;;
14849;SDS011;7517;48.400;11.770;2022-12-13T04:25:06;14.67;;;9.93;;
14849;SDS011;7517;48.400;11.770;2022-12-13T04:27:33;12.80;;;10.10;;
14849;SDS011;7517;48.400;11.770;2022-12-13T04:30:02;12.87;;;10.00;;
14849;SDS011;7517;48.400;11.770;2022-12-13T04:32:31;17.33;;;9.77;;
14849;SDS011;7517;48.400;11.770;2022-12-13T04:34:58;12.90;;;10.07;;
14849;SDS011;7517;48.400;11.770;2022-12-13T04:37:25;11.63;;;10.00;;
14849;SDS011;7517;48.400;11.770;2022-12-13T04:39:53;14.87;;;9.80;;
14849;SDS011;7517;48.400;11.770;2022-12-13T04:42:21;12.77;;;9.23;;
14849;SDS011;7517;48.400;11.770;2022-12-13T04:44:48;11.50;;;9.23;;
14849;SDS011;7517;48.400;11.770;2022-12-13T04:47:15;12.40;;;9.37;;
14849;SDS011;7517;48.400;11.770;2022-12-13T04:49:42;12.17;;;9.43;;
14849;SDS011;7517;48.400;11.770;2022-12-13T04:52:10;13.60;;;10.27;;
14849;SDS011;7517;48.400;11.770;2022-12-13T04:54:37;12.93;;;9.77;;
14849;SDS011;7517;48.400;11.770;2022-12-13T04:57:06;12.47;;;9.80;;
14849;SDS011;7517;48.400;11.770;2022-12-13T04:59:36;15.23;;;10.03;;
14849;SDS011;7517;48.400;11.770;2022-12-13T05:02:04;11.77;;;9.40;;
14849;SDS011;7517;48.400;11.770;2022-12-13T05:04:33;12.23;;;9.93;;
14849;SDS011;7517;48.400;11.770;2022-12-13T05:07:00;13.83;;;10.17;;
14849;SDS011;7517;48.400;11.770;2022-12-13T05:09:27;14.07;;;9.90;;
14849;SDS011;7517;48.400;11.770;2022-12-13T05:11:55;14.63;;;10.47;;
14849;SDS011;7517;48.400;11.770;2022-12-13T05:14:24;13.13;;;9.50;;
14849;SDS011;7517;48.400;11.770;2022-12-13T05:16:51;13.33;;;9.13;;
14849;SDS011;7517;48.400;11.770;2022-12-13T05:19:18;14.40;;;9.67;;
14849;SDS011;7517;48.400;11.770;2022-12-13T05:21:47;12.70;;;9.17;;
14849;SDS011;7517;48.400;11.770;2022-12-13T05:24:14;13.47;;;9.67;;
14849;SDS011;7517;48.400;11.770;2022-12-13T05:26:41;12.53;;;9.33;;
14849;SDS011;7517;48.400;11.770;2022-12-13T05:29:09;12.53;;;9.33;;
14849;SDS011;7517;48.400;11.770;2022-12-13T05:31:37;12.50;;;9.23;;
14849;SDS011;7517;48.400;11.770;2022-12-13T05:34:05;11.23;;;8.93;;
14849;SDS011;7517;48.400;11.770;2022-12-13T05:36:32;12.77;;;9.33;;
14849;SDS011;7517;48.400;11.770;2022-12-13T05:38:59;12.97;;;9.03;;
14849;SDS011;7517;48.400;11.770;2022-12-13T05:41:26;13.23;;;8.80;;
14849;SDS011;7517;48.400;11.770;2022-12-13T05:43:59;13.87;;;9.60;;
14849;SDS011;7517;48.400;11.770;2022-12-13T05:46:26;13.10;;;9.77;;
14849;SDS011;7517;48.400;11.770;2022-12-13T05:48:54;13.97;;;9.47;;
14849;SDS011;7517;48.400;11.770;2022-12-13T05:51:22;15.23;;;10.47;;
14849;SDS011;7517;48.400;11.770;2022-12-13T05:53:49;14.10;;;10.37;;
14849;SDS011;7517;48.400;11.770;2022-12-13T05:56:16;14.63;;;10.43;;
14849;SDS011;7517;48.400;11.770;2022-12-13T05:58:43;14.20;;;9.73;;
14849;SDS011;7517;48.400;11.770;2022-12-13T06:01:11;14.67;;;10.00;;
14849;SDS011;7517;48.400;11.770;2022-12-13T06:03:41;14.60;;;10.57;;
14849;SDS011;7517;48.400;11.770;2022-12-13T06:06:10;14.43;;;10.17;;
14849;SDS011;7517;48.400;11.770;2022-12-13T06:08:38;18.90;;;10.93;;
14849;SDS011;7517;48.400;11.770;2022-12-13T06:11:06;16.80;;;11.40;;
14849;SDS011;7517;48.400;11.770;2022-12-13T06:13:33;18.47;;;11.70;;
14849;SDS011;7517;48.400;11.770;2022-12-13T06:16:01;17.57;;;11.43;;
14849;SDS011;7517;48.400;11.770;2022-12-13T06:18:31;17.63;;;11.27;;
14849;SDS011;7517;48.400;11.770;2022-12-13T06:21:01;16.80;;;11.53;;
14849;SDS011;7517;48.400;11.770;2022-12-13T06:23:33;15.93;;;11.13;;
14849;SDS011;7517;48.400;11.770;2022-12-13T06:26:01;17.80;;;11.67;;
14849;SDS011;7517;48.400;11.770;2022-12-13T06:28:29;16.43;;;11.30;;
14849;SDS011;7517;48.400;11.770;2022-12-13T06:30:58;16.73;;;11.07;;
14849;SDS011;7517;48.400;11.770;2022-12-13T06:33:26;15.50;;;10.83;;
14849;SDS011;7517;48.400;11.770;2022-12-13T06:35:54;18.53;;;11.97;;
14849;SDS011;7517;48.400;11.770;2022-12-13T06:38:23;17.23;;;11.50;;
14849;SDS011;7517;48.400;11.770;2022-12-13T06:40:51;18.27;;;11.53;;
14849;SDS011;7517;48.400;11.770;2022-12-13T06:43:19;19.00;;;11.43;;
14849;SDS011;7517;48.400;11.770;2022-12-13T06:45:46;18.97;;;11.93;;
14849;SDS011;7517;48.400;11.770;2022-12-13T06:48:14;17.87;;;11.77;;
14849;SDS011;7517;48.400;11.770;2022-12-13T06:50:41;17.37;;;11.67;;
14849;SDS011;7517;48.400;11.770;2022-12-13T06:53:08;19.93;;;11.60;;
14849;SDS011;7517;48.400;11.770;2022-12-13T06:55:35;21.33;;;12.63;;
14849;SDS011;7517;48.400;11.770;2022-12-13T07:00:59;18.37;;;12.17;;
14849;SDS011;7517;48.400;11.770;2022-12-13T07:03:27;16.77;;;10.97;;
14849;SDS011;7517;48.400;11.770;2022-12-13T07:05:56;16.83;;;11.43;;
14849;SDS011;7517;48.400;11.770;2022-12-13T07:08:24;19.57;;;11.83;;
14849;SDS011;7517;48.400;11.770;2022-12-13T07:10:52;16.07;;;11.20;;
14849;SDS011;7517;48.400;11.770;2022-12-13T07:13:19;17.97;;;11.03;;
14849;SDS011;7517;48.400;11.770;2022-12-13T07:15:54;15.57;;;11.50;;
14849;SDS011;7517;48.400;11.770;2022-12-13T07:18:22;17.07;;;11.33;;
14849;SDS011;7517;48.400;11.770;2022-12-13T07:20:49;18.10;;;11.70;;
14849;SDS011;7517;48.400;11.770;2022-12-13T07:23:21;16.03;;;11.50;;
14849;SDS011;7517;48.400;11.770;2022-12-13T07:25:52;15.43;;;10.83;;
14849;SDS011;7517;48.400;11.770;2022-12-13T07:28:20;16.97;;;11.27;;
14849;SDS011;7517;48.400;11.770;2022-12-13T07:30:47;16.20;;;11.27;;
14849;SDS011;7517;48.400;11.770;2022-12-13T07:33:16;14.53;;;10.80;;
14849;SDS011;7517;48.400;11.770;2022-12-13T07:35:44;17.60;;;10.97;;
14849;SDS011;7517;48.400;11.770;2022-12-13T07:38:11;16.73;;;10.90;;
14849;SDS011;7517;48.400;11.770;2022-12-13T07:40:38;15.93;;;11.03;;
14849;SDS011;7517;48.400;11.770;2022-12-13T07:43:05;15.93;;;11.30;;
14849;SDS011;7517;48.400;11.770;2022-12-13T07:45:33;15.27;;;10.60;;
14849;SDS011;7517;48.400;11.770;2022-12-13T07:48:04;14.97;;;11.43;;
14849;SDS011;7517;48.400;11.770;2022-12-13T07:50:34;15.33;;;10.90;;
14849;SDS011;7517;48.400;11.770;2022-12-13T07:53:02;17.87;;;12.00;;
14849;SDS011;7517;48.400;11.770;2022-12-13T07:55:31;17.50;;;11.23;;
14849;SDS011;7517;48.400;11.770;2022-12-13T07:58:01;17.70;;;11.23;;
14849;SDS011;7517;48.400;11.770;2022-12-13T08:00:30;16.00;;;11.27;;
14849;SDS011;7517;48.400;11.770;2022-12-13T08:02:58;15.80;;;10.47;;
14849;SDS011;7517;48.400;11.770;2022-12-13T08:05:26;17.07;;;11.37;;
14849;SDS011;7517;48.400;11.770;2022-12-13T08:07:54;15.90;;;11.00;;
14849;SDS011;7517;48.400;11.770;2022-12-13T08:10:25;15.50;;;11.07;;
14849;SDS011;7517;48.400;11.770;2022-12-13T08:12:52;14.83;;;10.70;;
14849;SDS011;7517;48.400;11.770;2022-12-13T08:15:20;17.87;;;11.33;;
14849;SDS011;7517;48.400;11.770;2022-12-13T08:17:47;17.37;;;12.20;;
14849;SDS011;7517;48.400;11.770;2022-12-13T08:20:14;17.50;;;11.23;;
14849;SDS011;7517;48.400;11.770;2022-12-13T08:22:53;18.90;;;11.67;;
14849;SDS011;7517;48.400;11.770;2022-12-13T08:25:26;16.70;;;11.23;;
14849;SDS011;7517;48.400;11.770;2022-12-13T08:27:53;17.13;;;11.77;;
14849;SDS011;7517;48.400;11.770;2022-12-13T08:30:20;15.43;;;11.23;;
14849;SDS011;7517;48.400;11.770;2022-12-13T08:32:48;16.97;;;11.97;;
14849;SDS011;7517;48.400;11.770;2022-12-13T08:35:16;15.37;;;11.37;;
14849;SDS011;7517;48.400;11.770;2022-12-13T08:37:43;16.17;;;11.50;;
14849;SDS011;7517;48.400;11.770;2022-12-13T08:40:11;17.50;;;11.93;;
14849;SDS011;7517;48.400;11.770;2022-12-13T08:42:38;17.43;;;11.17;;
14849;SDS011;7517;48.400;11.770;2022-12-13T08:45:06;16.63;;;10.57;;
14849;SDS011;7517;48.400;11.770;2022-12-13T08:47:35;15.20;;;10.50;;
14849;SDS011;7517;48.400;11.770;2022-12-13T08:50:02;17.03;;;10.73;;
14849;SDS011;7517;48.400;11.770;2022-12-13T08:52:30;14.43;;;10.63;;
14849;SDS011;7517;48.400;11.770;2022-12-13T08:54:59;15.83;;;11.07;;
14849;SDS011;7517;48.400;11.770;2022-12-13T08:57:28;16.17;;;11.70;;
14849;SDS011;7517;48.400;11.770;2022-12-13T08:59:55;15.47;;;10.57;;
14849;SDS011;7517;48.400;11.770;2022-12-13T09:02:22;16.63;;;11.60;;
14849;SDS011;7517;48.400;11.770;2022-12-13T09:04:49;17.97;;;11.17;;
14849;SDS011;7517;48.400;11.770;2022-12-13T09:07:16;17.07;;;10.77;;
14849;SDS011;7517;48.400;11.770;2022-12-13T09:09:43;17.37;;;11.70;;
14849;SDS011;7517;48.400;11.770;2022-12-13T09:12:10;16.07;;;10.37;;
14849;SDS011;7517;48.400;11.770;2022-12-13T09:14:41;15.00;;;10.40;;
14849;SDS011;7517;48.400;11.770;2022-12-13T09:17:09;15.70;;;11.33;;
14849;SDS011;7517;48.400;11.770;2022-12-13T09:19:37;16.60;;;11.40;;
14849;SDS011;7517;48.400;11.770;2022-12-13T09:22:04;15.23;;;10.13;;
14849;SDS011;7517;48.400;11.770;2022-12-13T09:24:31;17.33;;;10.97;;
14849;SDS011;7517;48.400;11.770;2022-12-13T09:26:58;16.77;;;10.50;;
14849;SDS011;7517;48.400;11.770;2022-12-13T09:29:26;15.73;;;11.13;;
14849;SDS011;7517;48.400;11.770;2022-12-13T09:31:54;17.53;;;11.83;;
14849;SDS011;7517;48.400;11.770;2022-12-13T09:34:22;15.23;;;10.47;;
14849;SDS011;7517;48.400;11.770;2022-12-13T09:36:49;15.63;;;10.83;;
14849;SDS011;7517;48.400;11.770;2022-12-13T09:39:29;15.27;;;10.80;;
14849;SDS011;7517;48.400;11.770;2022-12-13T09:41:57;15.37;;;10.37;;
14849;SDS011;7517;48.400;11.770;2022-12-13T09:44:25;17.97;;;11.23;;
14849;SDS011;7517;48.400;11.770;2022-12-13T09:46:57;17.00;;;11.20;;
14849;SDS011;7517;48.400;11.770;2022-12-13T09:49:28;15.83;;;11.10;;
14849;SDS011;7517;48.400;11.770;2022-12-13T09:52:04;16.83;;;10.83;;
14849;SDS011;7517;48.400;11.770;2022-12-13T09:54:36;17.07;;;11.23;;
14849;SDS011;7517;48.400;11.770;2022-12-13T09:57:08;17.33;;;10.90;;
14849;SDS011;7517;48.400;11.770;2022-12-13T09:59:43;16.57;;;11.00;;
14849;SDS011;7517;48.400;11.770;2022-12-13T10:02:15;14.87;;;9.97;;
14849;SDS011;7517;48.400;11.770;2022-12-13T10:04:49;15.90;;;10.83;;
14849;SDS011;7517;48.400;11.770;2022-12-13T10:07:17;13.77;;;9.60;;
14849;SDS011;7517;48.400;11.770;2022-12-13T10:09:47;13.87;;;8.97;;
14849;SDS011;7517;48.400;11.770;2022-12-13T10:12:25;15.60;;;9.57;;
14849;SDS011;7517;48.400;11.770;2022-12-13T10:14:55;11.30;;;8.17;;
14849;SDS011;7517;48.400;11.770;2022-12-13T10:17:32;12.37;;;8.90;;
14849;SDS011;7517;48.400;11.770;2022-12-13T10:20:04;12.53;;;8.17;;
14849;SDS011;7517;48.400;11.770;2022-12-13T10:22:34;12.10;;;8.27;;
14849;SDS011;7517;48.400;11.770;2022-12-13T10:25:02;11.00;;;8.13;;
14849;SDS011;7517;48.400;11.770;2022-12-13T10:27:32;10.23;;;7.57;;
14849;SDS011;7517;48.400;11.770;2022-12-13T10:30:05;13.47;;;8.70;;
14849;SDS011;7517;48.400;11.770;2022-12-13T10:32:42;11.67;;;8.33;;
14849;SDS011;7517;48.400;11.770;2022-12-13T10:35:20;11.93;;;8.10;;
14849;SDS011;7517;48.400;11.770;2022-12-13T10:37:51;11.07;;;8.07;;
14849;SDS011;7517;48.400;11.770;2022-12-13T10:40:24;13.77;;;8.87;;
14849;SDS011;7517;48.400;11.770;2022-12-13T10:43:06;11.47;;;8.07;;
14849;SDS011;7517;48.400;11.770;2022-12-13T10:45:38;12.27;;;7.93;;
14849;SDS011;7517;48.400;11.770;2022-12-13T10:48:10;11.60;;;7.73;;
14849;SDS011;7517;48.400;11.770;2022-12-13T10:50:54;11.10;;;8.30;;
14849;SDS011;7517;48.400;11.770;2022-12-13T10:53:27;12.23;;;8.60;;
14849;SDS011;7517;48.400;11.770;2022-12-13T10:55:58;10.83;;;7.80;;
14849;SDS011;7517;48.400;11.770;2022-12-13T11:01:06;11.83;;;7.63;;
14849;SDS011;7517;48.400;11.770;2022-12-13T11:03:54;13.30;;;8.17;;
14849;SDS011;7517;48.400;11.770;2022-12-13T11:06:24;8.70;;;6.97;;
14849;SDS011;7517;48.400;11.770;2022-12-13T11:08:54;10.77;;;7.47;;
14849;SDS011;7517;48.400;11.770;2022-12-13T11:11:26;10.97;;;7.73;;
14849;SDS011;7517;48.400;11.770;2022-12-13T11:13:56;11.17;;;7.00;;
14849;SDS011;7517;48.400;11.770;2022-12-13T11:16:29;13.70;;;7.50;;
14849;SDS011;7517;48.400;11.770;2022-12-13T11:19:03;12.50;;;7.80;;
14849;SDS011;7517;48.400;11.770;2022-12-13T11:21:44;13.23;;;7.17;;
14849;SDS011;7517;48.400;11.770;2022-12-13T11:24:17;9.90;;;6.73;;
14849;SDS011;7517;48.400;11.770;2022-12-13T11:26:51;10.00;;;7.30;;
14849;SDS011;7517;48.400;11.770;2022-12-13T11:29:34;11.10;;;7.17;;
14849;SDS011;7517;48.400;11.770;2022-12-13T11:32:21;9.10;;;6.33;;
14849;SDS011;7517;48.400;11.770;2022-12-13T11:35:10;8.30;;;6.67;;
14849;SDS011;7517;48.400;11.770;2022-12-13T11:37:47;10.00;;;6.93;;
14849;SDS011;7517;48.400;11.770;2022-12-13T11:40:29;8.03;;;6.27;;
14849;SDS011;7517;48.400;11.770;2022-12-13T11:43:09;8.33;;;6.67;;
14849;SDS011;7517;48.400;11.770;2022-12-13T11:45:49;11.07;;;6.73;;
14849;SDS011;7517;48.400;11.770;2022-12-13T11:48:22;10.70;;;7.00;;
14849;SDS011;7517;48.400;11.770;2022-12-13T11:51:03;8.33;;;6.57;;
14849;SDS011;7517;48.400;11.770;2022-12-13T11:53:37;8.93;;;6.87;;
14849;SDS011;7517;48.400;11.770;2022-12-13T11:56:20;9.60;;;7.10;;
14849;SDS011;7517;48.400;11.770;2022-12-13T11:58:53;9.87;;;6.47;;
14849;SDS011;7517;48.400;11.770;2022-12-13T12:01:33;9.13;;;6.73;;
14849;SDS011;7517;48.400;11.770;2022-12-13T12:04:13;10.00;;;6.97;;
14849;SDS011;7517;48.400;11.770;2022-12-13T12:06:51;9.90;;;6.67;;
14849;SDS011;7517;48.400;11.770;2022-12-13T12:09:25;10.37;;;6.70;;
14849;SDS011;7517;48.400;11.770;2022-12-13T12:11:56;10.90;;;7.03;;
14849;SDS011;7517;48.400;11.770;2022-12-13T12:14:33;10.43;;;6.90;;
14849;SDS011;7517;48.400;11.770;2022-12-13T12:17:11;10.13;;;7.47;;
14849;SDS011;7517;48.400;11.770;2022-12-13T12:19:41;9.13;;;6.80;;
14849;SDS011;7517;48.400;11.770;2022-12-13T12:22:19;9.90;;;7.07;;
14849;SDS011;7517;48.400;11.770;2022-12-13T12:25:05;9.80;;;6.80;;
14849;SDS011;7517;48.400;11.770;2022-12-13T12:27:50;8.30;;;6.07;;
14849;SDS011;7517;48.400;11.770;2022-12-13T12:30:33;8.53;;;6.50;;
14849;SDS011;7517;48.400;11.770;2022-12-13T12:33:16;8.03;;;6.27;;
14849;SDS011;7517;48.400;11.770;2022-12-13T12:36:10;6.93;;;5.47;;
14849;SDS011;7517;48.400;11.770;2022-12-13T12:39:06;7.00;;;5.80;;
14849;SDS011;7517;48.400;11.770;2022-12-13T12:45:15;7.00;;;5.47;;
14849;SDS011;7517;48.400;11.770;2022-12-13T12:48:10;8.17;;;5.53;;
14849;SDS011;7517;48.400;11.770;2022-12-13T12:50:52;9.03;;;6.10;;
14849;SDS011;7517;48.400;11.770;2022-12-13T12:53:33;9.20;;;6.40;;
14849;SDS011;7517;48.400;11.770;2022-12-13T12:56:18;8.67;;;6.43;;
14849;SDS011;7517;48.400;11.770;2022-12-13T12:59:01;7.93;;;5.63;;
14849;SDS011;7517;48.400;11.770;2022-12-13T13:01:44;9.60;;;6.33;;
14849;SDS011;7517;48.400;11.770;2022-12-13T13:04:24;8.43;;;5.77;;
14849;SDS011;7517;48.400;11.770;2022-12-13T13:06:58;9.07;;;5.70;;
14849;SDS011;7517;48.400;11.770;2022-12-13T13:09:32;7.37;;;5.57;;
14849;SDS011;7517;48.400;11.770;2022-12-13T13:12:03;8.37;;;5.53;;
14849;SDS011;7517;48.400;11.770;2022-12-13T13:14:34;7.67;;;5.43;;
14849;SDS011;7517;48.400;11.770;2022-12-13T13:20:13;9.53;;;5.80;;
14849;SDS011;7517;48.400;11.770;2022-12-13T13:22:47;7.77;;;5.70;;
14849;SDS011;7517;48.400;11.770;2022-12-13T13:25:23;8.47;;;5.93;;
14849;SDS011;7517;48.400;11.770;2022-12-13T13:28:01;9.03;;;6.00;;
14849;SDS011;7517;48.400;11.770;2022-12-13T13:30:31;7.97;;;6.00;;
14849;SDS011;7517;48.400;11.770;2022-12-13T13:33:01;7.70;;;5.17;;
14849;SDS011;7517;48.400;11.770;2022-12-13T13:38:27;6.73;;;5.13;;
14849;SDS011;7517;48.400;11.770;2022-12-13T13:47:53;6.03;;;4.67;;
14849;SDS011;7517;48.400;11.770;2022-12-13T13:50:58;7.13;;;4.57;;
14849;SDS011;7517;48.400;11.770;2022-12-13T14:04:37;6.27;;;4.73;;
14849;SDS011;7517;48.400;11.770;2022-12-13T14:07:55;5.07;;;4.47;;
14849;SDS011;7517;48.400;11.770;2022-12-13T14:11:11;9.13;;;5.07;;
14849;SDS011;7517;48.400;11.770;2022-12-13T14:21:27;5.93;;;4.57;;
14849;SDS011;7517;48.400;11.770;2022-12-13T14:24:23;5.00;;;4.40;;
14849;SDS011;7517;48.400;11.770;2022-12-13T14:27:07;6.07;;;4.43;;
14849;SDS011;7517;48.400;11.770;2022-12-13T14:29:51;6.57;;;4.57;;
14849;SDS011;7517;48.400;11.770;2022-12-13T14:32:20;6.07;;;4.53;;
14849;SDS011;7517;48.400;11.770;2022-12-13T14:34:50;6.90;;;4.93;;
14849;SDS011;7517;48.400;11.770;2022-12-13T14:37:23;6.47;;;5.23;;
14849;SDS011;7517;48.400;11.770;2022-12-13T14:39:54;5.67;;;4.50;;
14849;SDS011;7517;48.400;11.770;2022-12-13T14:42:23;9.17;;;5.30;;
14849;SDS011;7517;48.400;11.770;2022-12-13T14:44:54;5.27;;;4.60;;
14849;SDS011;7517;48.400;11.770;2022-12-13T14:47:38;5.03;;;4.00;;
14849;SDS011;7517;48.400;11.770;2022-12-13T14:50:07;5.33;;;4.63;;
14849;SDS011;7517;48.400;11.770;2022-12-13T14:52:39;8.23;;;4.87;;
14849;SDS011;7517;48.400;11.770;2022-12-13T14:55:19;6.47;;;4.83;;
14849;SDS011;7517;48.400;11.770;2022-12-13T14:57:51;6.50;;;5.10;;
14849;SDS011;7517;48.400;11.770;2022-12-13T15:00:21;7.53;;;4.90;;
14849;SDS011;7517;48.400;11.770;2022-12-13T15:02:53;5.13;;;4.50;;
14849;SDS011;7517;48.400;11.770;2022-12-13T15:05:24;5.03;;;4.53;;
14849;SDS011;7517;48.400;11.770;2022-12-13T15:07:55;5.53;;;4.33;;
14849;SDS011;7517;48.400;11.770;2022-12-13T15:10:33;6.30;;;4.63;;
14849;SDS011;7517;48.400;11.770;2022-12-13T15:13:05;5.43;;;4.33;;
14849;SDS011;7517;48.400;11.770;2022-12-13T15:15:51;6.13;;;4.47;;
14849;SDS011;7517;48.400;11.770;2022-12-13T15:18:21;5.90;;;4.27;;
14849;SDS011;7517;48.400;11.770;2022-12-13T15:20:50;4.77;;;4.20;;
14849;SDS011;7517;48.400;11.770;2022-12-13T15:23:23;7.77;;;4.63;;
14849;SDS011;7517;48.400;11.770;2022-12-13T15:25:57;5.97;;;4.27;;
14849;SDS011;7517;48.400;11.770;2022-12-13T15:28:29;5.53;;;4.70;;
14849;SDS011;7517;48.400;11.770;2022-12-13T15:31:02;6.70;;;4.23;;
14849;SDS011;7517;48.400;11.770;2022-12-13T15:33:31;5.43;;;4.63;;
14849;SDS011;7517;48.400;11.770;2022-12-13T15:36:01;6.57;;;4.80;;
14849;SDS011;7517;48.400;11.770;2022-12-13T15:38:36;5.43;;;4.23;;
14849;SDS011;7517;48.400;11.770;2022-12-13T15:41:15;5.67;;;4.67;;
14849;SDS011;7517;48.400;11.770;2022-12-13T15:43:46;7.10;;;5.17;;